This is the latest recevied weather packets stored in our database for station/object IU2PLZ-10. If no packets are shown the sender has not sent any weather packets the latest 10 day(s).
| Time | Temp. | Humidity | Pressure | Rain* | Wind** | Luminosity | Snow |
|---|---|---|---|---|---|---|---|
| 1777564884 | 24.44° C | 40% | 964.6 hPa | - | - | - | - |
| 1777563984 | 24.44° C | 42% | 964.5 hPa | - | - | - | - |
| 1777563084 | 24.44° C | 42% | 964.4 hPa | - | - | - | - |
| 1777562183 | 25.56° C | 43% | 964.5 hPa | - | - | - | - |
| 1777561283 | 25.56° C | 43% | 964.4 hPa | - | - | - | - |
| 1777560383 | 26.11° C | 43% | 964.5 hPa | - | - | - | - |
| 1777559483 | 26.67° C | 43% | 963.9 hPa | - | - | - | - |
| 1777558583 | 27.78° C | 42% | 964.5 hPa | - | - | - | - |
| 1777557683 | 28.89° C | 42% | 963.9 hPa | - | - | - | - |
| 1777556782 | 30° C | 42% | 964.8 hPa | - | - | - | - |
| 1777555882 | 29.44° C | 42% | 964.9 hPa | - | - | - | - |
| 1777554982 | 28.89° C | 43% | 965 hPa | - | - | - | - |
| 1777554082 | 28.33° C | 42% | 965.2 hPa | - | - | - | - |
| 1777553182 | 28.89° C | 40% | 965.2 hPa | - | - | - | - |
| 1777552282 | 28.33° C | 39% | 964.4 hPa | - | - | - | - |
| 1777551381 | 29.44° C | 38% | 965.3 hPa | - | - | - | - |
| 1777550481 | 30° C | 36% | 965.3 hPa | - | - | - | - |
| 1777549581 | 30° C | 33% | 965.2 hPa | - | - | - | - |
| 1777548681 | 29.44° C | 32% | 965.1 hPa | - | - | - | - |
| 1777547781 | 30° C | 32% | 965.2 hPa | - | - | - | - |
| 1777546881 | 30.56° C | 32% | 964.6 hPa | - | - | - | - |
| 1777545980 | 28.33° C | 34% | 963.4 hPa | - | - | - | - |
| 1777545080 | 28.89° C | 33% | 964.8 hPa | - | - | - | - |
| 1777544180 | 30° C | 31% | 965.6 hPa | - | - | - | - |
| 1777543280 | 30.56° C | 31% | 965.4 hPa | - | - | - | - |
* Rain since midnight (hover to see other rain measurements)
** Current wind speed in m/s (hover to see current wind gust speed)